Terminal Aerodrome Forecast
Issued by NWS

Home | Current Version | Previous Version | Graphics & Text | Print | Product List | Glossary On
Versions: 1 2 3 4 5 6 7 8 9 10 11 12 13 14 15 16
000
FTUS43 KMPX 241000 AAB
TAFRWF
TAF AMD
KRWF 241024Z 2410/2506 15011KT P6SM VCTS SCT020 BKN050CB
      TEMPO 2412/2414 2SM -TSRA BKN020CB
     FM241400 17012KT P6SM SCT025 BKN120
     FM241600 19013G21KT P6SM SCT100
     FM250000 24009KT P6SM FEW150=

USA.gov is the U.S. government's official web portal to all federal, state and local government web resources and services.